createdAt,value
2019-05-15T00:00:23.466Z,92.10
2019-05-15T00:02:48.830Z,92.20
2019-05-15T00:05:14.386Z,92.50
2019-05-15T00:07:39.777Z,92.60
2019-05-15T00:10:05.511Z,92.60
2019-05-15T00:12:30.962Z,92.50
2019-05-15T00:14:58.214Z,92.60
2019-05-15T00:17:23.598Z,92.80
2019-05-15T00:19:48.985Z,92.60
2019-05-15T00:22:15.402Z,92.80
2019-05-15T00:24:40.790Z,93.20
2019-05-15T00:27:08.038Z,93.10
2019-05-15T00:29:33.118Z,92.90
2019-05-15T00:31:58.993Z,93.10
2019-05-15T00:34:24.450Z,93.40
2019-05-15T00:36:49.799Z,93.30
2019-05-15T00:39:15.159Z,93.60
2019-05-15T00:41:50.315Z,93.70
2019-05-15T00:44:09.197Z,93.70
2019-05-15T00:46:34.435Z,93.60
2019-05-15T00:48:59.779Z,93.30
2019-05-15T00:51:25.519Z,93.30
2019-05-15T00:53:50.862Z,93.90
2019-05-15T00:56:16.213Z,94.20
2019-05-15T00:58:41.566Z,94.10
2019-05-15T01:01:08.345Z,94.20
2019-05-15T01:03:33.774Z,94.30
2019-05-15T01:05:59.131Z,94.10
2019-05-15T01:08:24.467Z,94.50
2019-05-15T01:10:49.829Z,94.30
2019-05-15T01:13:15.290Z,94.50
2019-05-15T01:15:40.650Z,94.60
2019-05-15T01:18:05.990Z,94.40
2019-05-15T01:20:31.526Z,94.60
2019-05-15T01:22:59.037Z,94.70
2019-05-15T01:25:24.053Z,94.80
2019-05-15T01:27:49.422Z,94.80
2019-05-15T01:30:14.985Z,95.00
2019-05-15T01:32:40.343Z,94.60
2019-05-15T01:35:05.719Z,95.00
2019-05-15T01:37:32.050Z,95.00
2019-05-15T01:39:58.146Z,94.90
2019-05-15T01:42:23.554Z,95.10
2019-05-15T01:44:48.986Z,95.70
2019-05-15T01:47:14.382Z,95.40
2019-05-15T01:49:39.735Z,95.50
2019-05-15T01:52:05.090Z,95.20
2019-05-15T01:54:30.851Z,95.60
2019-05-15T01:56:58.564Z,95.80
2019-05-15T01:59:23.207Z,96.00
2019-05-15T02:01:48.765Z,95.80
2019-05-15T02:04:14.147Z,95.70
2019-05-15T02:06:39.491Z,96.00
2019-05-15T02:09:08.288Z,95.60
2019-05-15T02:11:34.831Z,95.80
2019-05-15T02:14:00.170Z,96.00
2019-05-15T02:16:25.546Z,96.10
2019-05-15T02:18:50.895Z,96.00
2019-05-15T02:21:18.264Z,96.60
2019-05-15T02:23:43.214Z,96.20
2019-05-15T02:26:08.636Z,96.50
2019-05-15T02:28:33.971Z,96.50
2019-05-15T02:30:59.354Z,96.40
2019-05-15T02:33:24.700Z,96.30
2019-05-15T02:35:50.514Z,96.40
2019-05-15T02:38:15.976Z,96.30
2019-05-15T02:40:41.332Z,96.80
2019-05-15T02:43:09.609Z,96.90
2019-05-15T02:45:36.669Z,96.90
2019-05-15T02:48:00.652Z,97.30
2019-05-15T02:50:28.897Z,96.80
2019-05-15T02:52:53.062Z,97.20
2019-05-15T02:55:19.674Z,97.00
2019-05-15T02:57:45.259Z,97.40
2019-05-15T03:00:11.462Z,97.30
2019-05-15T03:02:36.862Z,97.20
2019-05-15T03:05:02.242Z,97.10
2019-05-15T03:07:29.569Z,97.30
2019-05-15T03:09:54.591Z,97.70
2019-05-15T03:12:19.974Z,97.20
2019-05-15T03:14:45.310Z,97.20
2019-05-15T03:17:10.653Z,97.10
2019-05-15T03:19:39.012Z,96.70
2019-05-15T03:22:03.017Z,96.90
2019-05-15T03:24:29.032Z,96.80
2019-05-15T03:26:59.034Z,96.50
2019-05-15T03:29:23.025Z,98.00
2019-05-15T03:32:05.292Z,97.60
2019-05-15T03:34:23.262Z,97.90
2019-05-15T03:36:44.808Z,98.20
2019-05-15T03:39:09.783Z,98.60
2019-05-15T03:41:35.166Z,98.60
2019-05-15T03:44:00.513Z,98.90
2019-05-15T03:46:28.918Z,98.70
2019-05-15T03:48:52.839Z,99.10
2019-05-15T03:51:19.802Z,98.70
2019-05-15T03:53:45.184Z,98.80
2019-05-15T03:56:10.737Z,99.50
2019-05-15T03:58:39.712Z,99.70
2019-05-15T04:01:04.046Z,99.90
2019-05-15T04:03:30.262Z,99.50
2019-05-15T04:05:55.758Z,99.90
2019-05-15T04:08:21.124Z,99.80
2019-05-15T04:10:48.743Z,99.50
2019-05-15T04:13:13.466Z,98.90
2019-05-15T04:15:40.200Z,98.90
2019-05-15T04:18:08.934Z,99.90
2019-05-15T04:20:32.602Z,99.80
2019-05-15T04:23:00.482Z,99.50
2019-05-15T04:25:25.655Z,99.70
2019-05-15T04:27:51.712Z,99.50
2019-05-15T04:30:18.956Z,99.50
2019-05-15T04:32:44.268Z,99.80
2019-05-15T04:35:10.009Z,99.90
2019-05-15T04:37:35.486Z,99.90
2019-05-15T04:40:00.871Z,99.90
2019-05-15T04:42:29.650Z,99.90
2019-05-15T04:44:53.183Z,99.80
2019-05-15T04:47:19.252Z,99.70
2019-05-15T04:49:44.804Z,99.90
2019-05-15T04:52:11.186Z,99.90
2019-05-15T04:54:39.902Z,99.90
2019-05-15T04:57:03.535Z,99.90
2019-05-15T04:59:29.961Z,99.80
2019-05-15T05:02:12.944Z,99.80
2019-05-15T05:04:22.510Z,99.20
2019-05-15T05:06:49.501Z,99.70
2019-05-15T05:09:14.997Z,98.70
2019-05-15T05:11:40.619Z,98.70
2019-05-15T05:14:08.369Z,98.50
2019-05-15T05:16:32.934Z,97.90
2019-05-15T05:18:59.416Z,97.70
2019-05-15T05:21:24.845Z,97.70
2019-05-15T05:23:50.226Z,97.40
2019-05-15T05:26:15.566Z,97.20
2019-05-15T05:28:40.967Z,96.90
2019-05-15T05:31:08.438Z,96.70
2019-05-15T05:33:33.382Z,96.50
2019-05-15T05:35:58.729Z,96.40
2019-05-15T05:38:24.077Z,96.50
2019-05-15T05:40:50.145Z,96.40
2019-05-15T05:43:15.631Z,96.70
2019-05-15T05:45:40.999Z,95.90
2019-05-15T05:48:08.698Z,95.60
2019-05-15T05:50:38.628Z,95.80
2019-05-15T05:53:04.441Z,95.60
2019-05-15T05:55:29.791Z,95.20
2019-05-15T05:57:55.201Z,95.20
2019-05-15T06:00:24.311Z,95.00
2019-05-15T06:02:52.351Z,94.90
2019-05-15T06:05:18.856Z,95.40
2019-05-15T06:07:43.654Z,95.00
2019-05-15T06:10:09.820Z,94.40
2019-05-15T06:12:35.193Z,94.30
2019-05-15T06:15:00.534Z,94.00
2019-05-15T06:17:27.966Z,93.50
2019-05-15T06:19:52.890Z,93.20
2019-05-15T06:22:18.779Z,93.10
2019-05-15T06:24:44.327Z,93.40
2019-05-15T06:27:09.662Z,93.00
2019-05-15T06:29:35.049Z,92.40
2019-05-15T06:32:00.382Z,92.50
2019-05-15T06:34:25.749Z,92.10
2019-05-15T06:36:51.094Z,92.50
2019-05-15T06:39:17.881Z,92.10
2019-05-15T06:41:43.411Z,91.60
2019-05-15T06:44:09.742Z,91.50
2019-05-15T06:46:35.118Z,92.30
2019-05-15T06:49:00.479Z,91.40
2019-05-15T06:51:25.838Z,91.00
2019-05-15T06:53:51.178Z,90.60
2019-05-15T06:56:18.772Z,91.00
2019-05-15T06:58:43.625Z,90.80
2019-05-15T07:01:09.099Z,90.50
2019-05-15T07:03:34.449Z,90.00
2019-05-15T07:06:00.530Z,88.80
2019-05-15T07:08:25.888Z,89.10
2019-05-15T07:10:51.232Z,88.70
2019-05-15T07:13:18.242Z,87.40
2019-05-15T07:15:44.538Z,85.70
2019-05-15T07:18:09.919Z,85.00
2019-05-15T07:20:35.264Z,87.60
2019-05-15T07:23:00.707Z,86.90
2019-05-15T07:25:26.162Z,82.60
2019-05-15T07:27:51.543Z,83.00
2019-05-15T07:30:18.770Z,77.70
2019-05-15T07:32:45.127Z,80.30
2019-05-15T07:35:10.999Z,78.70
2019-05-15T07:37:38.708Z,78.40
2019-05-15T07:40:04.053Z,78.90
2019-05-15T07:42:29.415Z,75.20
2019-05-15T07:44:54.796Z,75.00
2019-05-15T07:47:20.222Z,73.90
2019-05-15T07:49:49.034Z,75.70
2019-05-15T07:52:12.579Z,75.00
2019-05-15T07:54:38.420Z,74.00
2019-05-15T07:57:03.821Z,68.80
2019-05-15T07:59:29.238Z,67.40
2019-05-15T08:01:54.637Z,64.10
2019-05-15T08:04:28.884Z,64.30
2019-05-15T08:06:49.069Z,66.90
2019-05-15T08:09:14.302Z,63.10
2019-05-15T08:11:39.694Z,61.70
2019-05-15T08:14:05.137Z,60.60
2019-05-15T08:16:30.488Z,60.40
2019-05-15T08:18:57.731Z,61.10
2019-05-15T08:21:22.862Z,59.60
2019-05-15T08:23:48.672Z,59.70
2019-05-15T08:26:14.021Z,60.40
2019-05-15T08:28:39.423Z,58.10
2019-05-15T08:31:06.637Z,57.50
2019-05-15T08:33:31.786Z,57.00
2019-05-15T08:35:58.855Z,57.00
2019-05-15T08:38:24.355Z,57.50
2019-05-15T08:40:49.775Z,57.00
2019-05-15T08:43:15.139Z,57.30
2019-05-15T08:45:40.548Z,57.70
2019-05-15T08:48:05.938Z,58.00
2019-05-15T08:50:31.910Z,56.10
2019-05-15T08:52:57.970Z,56.80
2019-05-15T08:55:23.307Z,55.50
2019-05-15T08:57:55.530Z,57.50
2019-05-15T09:00:18.507Z,57.20
2019-05-15T09:02:43.540Z,54.70
2019-05-15T09:05:09.650Z,56.10
2019-05-15T09:07:35.023Z,56.50
2019-05-15T09:10:00.403Z,56.70
2019-05-15T09:12:25.825Z,57.70
2019-05-15T09:14:51.315Z,56.80
2019-05-15T09:17:18.128Z,58.20
2019-05-15T09:19:44.456Z,57.30
2019-05-15T09:22:09.850Z,58.00
2019-05-15T09:24:37.891Z,56.00
2019-05-15T09:27:04.315Z,56.40
2019-05-15T09:29:31.035Z,57.10
2019-05-15T09:31:58.676Z,55.40
2019-05-15T09:34:23.851Z,57.70
2019-05-15T09:36:49.262Z,55.00
2019-05-15T09:39:14.791Z,54.90
2019-05-15T09:41:41.231Z,56.30
2019-05-15T09:44:07.981Z,54.30
2019-05-15T09:46:33.488Z,55.40
2019-05-15T09:48:59.772Z,56.00
2019-05-15T09:51:29.044Z,55.00
2019-05-15T09:53:54.286Z,54.00
2019-05-15T09:56:19.650Z,52.80
2019-05-15T09:58:45.070Z,54.90
2019-05-15T10:01:10.433Z,54.70
2019-05-15T10:03:38.821Z,53.70
2019-05-15T10:06:03.002Z,54.10
2019-05-15T10:08:29.211Z,54.50
2019-05-15T10:10:54.758Z,55.20
2019-05-15T10:13:21.102Z,56.80
2019-05-15T10:15:50.192Z,53.90
2019-05-15T10:18:13.482Z,55.10
2019-05-15T10:20:38.879Z,55.70
2019-05-15T10:23:04.257Z,53.90
2019-05-15T10:25:29.617Z,54.70
2019-05-15T10:27:54.999Z,54.90
2019-05-15T10:30:22.146Z,57.20
2019-05-15T10:32:48.681Z,54.40
2019-05-15T10:35:25.515Z,58.30
2019-05-15T10:37:41.292Z,52.60
2019-05-15T10:40:09.120Z,53.80
2019-05-15T10:42:34.563Z,53.30
2019-05-15T10:45:00.511Z,53.40
2019-05-15T10:47:28.721Z,52.00
2019-05-15T10:49:54.295Z,51.40
2019-05-15T10:52:20.644Z,50.00
2019-05-15T10:54:46.022Z,50.00
2019-05-15T10:57:11.608Z,50.90
2019-05-15T10:59:37.085Z,49.20
2019-05-15T11:02:02.469Z,49.30
2019-05-15T11:04:28.811Z,49.70
2019-05-15T11:06:54.583Z,49.10
2019-05-15T11:09:20.982Z,50.00
2019-05-15T11:11:48.687Z,51.10
2019-05-15T11:14:13.347Z,52.50
2019-05-15T11:16:39.227Z,49.80
2019-05-15T11:19:04.616Z,51.10
2019-05-15T11:21:29.996Z,50.20
2019-05-15T11:23:58.847Z,49.60
2019-05-15T11:26:22.588Z,49.70
2019-05-15T11:28:49.779Z,50.80
2019-05-15T11:31:14.993Z,51.60
2019-05-15T11:33:40.568Z,49.40
2019-05-15T11:36:06.412Z,51.10
2019-05-15T11:38:31.912Z,49.00
2019-05-15T11:40:57.275Z,49.70
2019-05-15T11:43:22.690Z,53.90
2019-05-15T11:45:48.457Z,51.20
2019-05-15T11:48:14.133Z,51.20
2019-05-15T11:50:40.151Z,50.80
2019-05-15T11:53:08.502Z,49.90
2019-05-15T11:55:32.634Z,50.70
2019-05-15T11:57:59.417Z,50.10
2019-05-15T12:00:26.996Z,48.70
2019-05-15T12:02:52.002Z,47.80
2019-05-15T12:05:18.255Z,49.10
2019-05-15T12:07:47.672Z,48.90
2019-05-15T12:10:11.642Z,48.30
2019-05-15T12:12:38.568Z,50.80
2019-05-15T12:15:05.891Z,48.50
2019-05-15T12:17:34.083Z,49.40
2019-05-15T12:20:05.370Z,50.40
2019-05-15T12:22:25.243Z,55.30
2019-05-15T12:24:50.599Z,48.60
2019-05-15T12:27:18.286Z,47.10
2019-05-15T12:29:44.006Z,48.80
2019-05-15T12:32:25.177Z,46.60
2019-05-15T12:34:38.823Z,46.10
2019-05-15T12:37:04.252Z,47.30
2019-05-15T12:39:30.617Z,48.90
2019-05-15T13:01:33.762Z,46.60
2019-05-15T13:03:59.113Z,46.00
2019-05-15T13:06:24.787Z,47.10
2019-05-15T13:08:50.133Z,48.50
2019-05-15T13:11:17.848Z,48.20
2019-05-15T13:13:42.846Z,49.10
2019-05-15T13:16:08.270Z,49.40
2019-05-15T13:18:34.001Z,48.10
2019-05-15T13:20:59.759Z,47.80
2019-05-15T13:23:25.520Z,49.10
2019-05-15T13:25:50.854Z,48.40
2019-05-15T13:28:18.374Z,49.20
2019-05-15T13:30:43.239Z,48.50
2019-05-15T13:33:10.103Z,50.60
2019-05-15T13:35:37.918Z,50.60
2019-05-15T13:38:02.666Z,52.00
2019-05-15T13:40:37.521Z,52.00
2019-05-15T13:42:55.070Z,50.80
2019-05-15T13:45:21.178Z,51.30
2019-05-15T13:47:46.530Z,52.80
2019-05-15T13:50:12.078Z,52.10
2019-05-15T13:52:39.374Z,53.80
2019-05-15T13:55:04.739Z,55.10
2019-05-15T13:57:30.107Z,55.00
2019-05-15T13:59:55.443Z,55.30
2019-05-15T14:02:20.811Z,56.20
2019-05-15T14:04:48.898Z,59.70
2019-05-15T14:07:13.151Z,59.10
2019-05-15T14:09:44.307Z,61.80
2019-05-15T14:12:11.683Z,63.60
2019-05-15T14:14:33.274Z,63.20
2019-05-15T14:16:59.228Z,62.70
2019-05-15T14:19:24.710Z,64.30
2019-05-15T14:21:50.055Z,66.30
2019-05-15T14:24:15.449Z,67.00
2019-05-15T14:26:40.802Z,65.10
2019-05-15T14:29:08.952Z,63.00
2019-05-15T14:31:36.415Z,66.20
2019-05-15T14:34:01.105Z,68.50
2019-05-15T14:36:28.676Z,68.30
2019-05-15T14:38:53.505Z,66.40
2019-05-15T14:41:19.232Z,66.20
2019-05-15T14:43:44.899Z,63.80
2019-05-15T14:46:10.250Z,63.10
2019-05-15T14:48:35.634Z,62.00
2019-05-15T14:51:00.986Z,65.00
2019-05-15T14:53:29.191Z,62.60
2019-05-15T14:55:53.319Z,62.60
2019-05-15T14:58:19.755Z,61.80
2019-05-15T15:00:49.700Z,63.20
2019-05-15T15:03:12.803Z,64.00
2019-05-15T15:05:38.765Z,64.40
2019-05-15T15:08:17.336Z,64.30
2019-05-15T15:10:31.712Z,62.90
2019-05-15T15:12:58.617Z,63.80
2019-05-15T15:15:24.114Z,63.50
2019-05-15T15:17:49.500Z,63.20
2019-05-15T15:20:15.138Z,62.40
2019-05-15T15:22:40.896Z,63.70
2019-05-15T15:25:09.204Z,63.30
2019-05-15T15:27:33.634Z,62.50
2019-05-15T15:29:58.996Z,64.70
2019-05-15T15:32:24.726Z,65.10
2019-05-15T15:34:50.144Z,63.60
2019-05-15T15:37:15.826Z,63.30
2019-05-15T15:39:41.486Z,63.40
2019-05-15T15:42:08.606Z,62.80
2019-05-15T15:44:34.131Z,61.50
2019-05-15T15:46:59.670Z,63.30
2019-05-15T15:49:27.885Z,63.20
2019-05-15T15:51:54.562Z,63.30
2019-05-15T15:54:20.191Z,62.60
2019-05-15T15:56:48.336Z,62.80
2019-05-15T15:59:12.558Z,62.90
2019-05-15T16:01:39.127Z,62.30
2019-05-15T16:04:04.841Z,63.70
2019-05-15T16:06:30.321Z,63.30
2019-05-15T16:08:55.970Z,64.40
2019-05-15T16:11:22.537Z,65.10
2019-05-15T16:13:49.674Z,64.70
2019-05-15T16:16:14.873Z,64.70
2019-05-15T16:18:41.213Z,65.10
2019-05-15T16:21:08.168Z,66.10
2019-05-15T16:23:33.920Z,66.40
2019-05-15T16:26:00.965Z,66.80
2019-05-15T16:28:28.805Z,67.50
2019-05-15T16:30:53.554Z,66.60
2019-05-15T16:33:18.969Z,67.20
2019-05-15T16:35:44.330Z,68.80
2019-05-15T16:38:09.858Z,67.90
2019-05-15T16:40:35.232Z,69.20
2019-05-15T16:43:00.578Z,68.90
2019-05-15T16:45:28.678Z,69.00
2019-05-15T16:47:53.236Z,70.10
2019-05-15T16:50:18.619Z,71.10
2019-05-15T16:52:43.965Z,71.30
2019-05-15T16:55:10.493Z,71.70
2019-05-15T16:57:38.371Z,71.70
2019-05-15T17:00:02.898Z,72.60
2019-05-15T17:02:31.710Z,73.70
2019-05-15T17:04:55.596Z,72.60
2019-05-15T17:07:21.070Z,73.30
2019-05-15T17:09:48.101Z,73.30
2019-05-15T17:12:13.563Z,73.60
2019-05-15T17:14:39.017Z,73.80
2019-05-15T17:17:07.821Z,74.40
2019-05-15T17:19:32.351Z,75.50
2019-05-15T17:21:58.767Z,75.40
2019-05-15T17:24:24.282Z,75.70
2019-05-15T17:26:49.690Z,76.00
2019-05-15T17:29:15.286Z,76.10
2019-05-15T17:31:40.738Z,76.50
2019-05-15T17:34:06.118Z,76.80
2019-05-15T17:36:32.089Z,77.30
2019-05-15T17:38:58.067Z,78.00
2019-05-15T17:41:23.505Z,78.50
2019-05-15T17:43:48.901Z,78.80
2019-05-15T17:46:14.265Z,79.40
2019-05-15T17:48:39.895Z,79.40
2019-05-15T17:51:05.258Z,80.40
2019-05-15T17:53:30.811Z,81.20
2019-05-15T17:55:58.451Z,80.80
2019-05-15T17:58:23.254Z,81.30
2019-05-15T18:00:48.763Z,82.00
2019-05-15T18:03:14.159Z,83.00
2019-05-15T18:05:39.523Z,85.30
2019-05-15T18:08:04.930Z,89.20
2019-05-15T18:10:30.278Z,89.10
2019-05-15T18:12:58.151Z,90.40
2019-05-15T18:15:22.957Z,90.90
2019-05-15T18:17:48.703Z,91.80
2019-05-15T18:20:15.298Z,91.90
2019-05-15T18:22:41.646Z,92.30
2019-05-15T18:25:09.055Z,92.40
2019-05-15T18:27:34.069Z,91.80
2019-05-15T18:29:59.555Z,92.30
2019-05-15T18:32:24.922Z,92.30
2019-05-15T18:34:50.290Z,91.40
2019-05-15T18:37:15.641Z,91.10
2019-05-15T18:39:41.194Z,91.70
2019-05-15T18:42:06.658Z,91.50
2019-05-15T18:44:32.025Z,91.60
2019-05-15T18:46:58.837Z,91.60
2019-05-15T18:49:24.232Z,91.30
2019-05-15T18:51:49.617Z,91.60
2019-05-15T18:54:14.979Z,91.50
2019-05-15T18:56:40.602Z,91.40
2019-05-15T18:59:08.092Z,91.30
2019-05-15T19:01:33.231Z,91.60
2019-05-15T19:03:58.696Z,91.90
2019-05-15T19:06:24.167Z,91.80
2019-05-15T19:08:49.545Z,91.40
2019-05-15T19:11:14.929Z,91.40
2019-05-15T19:13:40.261Z,91.70
2019-05-15T19:16:05.650Z,92.00
2019-05-15T19:18:30.986Z,91.50
2019-05-15T19:20:58.407Z,91.60
2019-05-15T19:23:23.321Z,91.20
2019-05-15T19:25:48.679Z,91.10
2019-05-15T19:28:14.037Z,91.20
2019-05-15T19:30:39.582Z,91.40
2019-05-15T19:33:04.951Z,91.30
2019-05-15T19:35:30.287Z,91.30
2019-05-15T19:37:58.233Z,91.40
2019-05-15T19:40:22.711Z,90.90
2019-05-15T19:42:48.831Z,91.10
2019-05-15T19:45:14.538Z,90.90
2019-05-15T19:47:39.881Z,91.10
2019-05-15T19:50:08.243Z,91.50
2019-05-15T19:52:32.905Z,91.10
2019-05-15T19:54:58.383Z,91.20
2019-05-15T19:57:23.721Z,91.00
2019-05-15T19:59:49.098Z,91.20
2019-05-15T20:02:17.618Z,91.50
2019-05-15T20:04:42.493Z,91.50
2019-05-15T20:07:08.093Z,92.00
2019-05-15T20:09:33.574Z,91.50
2019-05-15T20:11:59.206Z,91.40
2019-05-15T20:14:24.618Z,92.00
2019-05-15T20:16:50.062Z,91.40
2019-05-15T20:19:17.760Z,91.50
2019-05-15T20:21:42.657Z,91.70
2019-05-15T20:24:09.068Z,91.20
2019-05-15T20:26:34.514Z,91.20
2019-05-15T20:28:59.926Z,91.70
2019-05-15T20:31:28.263Z,91.30
2019-05-15T20:34:03.269Z,91.10
2019-05-15T20:36:19.711Z,91.10
2019-05-15T20:38:45.146Z,91.30
2019-05-15T20:41:10.634Z,91.50
2019-05-15T20:43:38.304Z,91.30
2019-05-15T20:46:03.312Z,91.40
2019-05-15T20:48:29.071Z,91.40
2019-05-15T20:50:54.464Z,91.70
2019-05-15T20:53:19.898Z,91.00
2019-05-15T20:55:45.367Z,91.30
2019-05-15T20:58:10.841Z,91.20
2019-05-15T21:00:40.732Z,91.70
2019-05-15T21:03:03.230Z,91.20
2019-05-15T21:05:28.644Z,91.20
2019-05-15T21:07:54.280Z,90.90
2019-05-15T21:10:21.532Z,91.20
2019-05-15T21:12:48.563Z,91.50
2019-05-15T21:15:14.849Z,91.30
2019-05-15T21:17:41.906Z,91.00
2019-05-15T21:20:09.445Z,91.40
2019-05-15T21:22:34.291Z,91.00
2019-05-15T21:24:59.946Z,90.90
2019-05-15T21:27:32.008Z,91.50
2019-05-15T21:29:53.498Z,90.90
2019-05-15T21:32:19.636Z,90.90
2019-05-15T21:34:45.374Z,91.10
2019-05-15T21:37:10.798Z,91.10
2019-05-15T21:39:36.166Z,91.10
2019-05-15T21:42:01.861Z,90.80
2019-05-15T21:44:29.230Z,91.40
2019-05-15T21:46:54.625Z,90.60
2019-05-15T21:49:19.966Z,91.10
2019-05-15T21:51:47.528Z,91.10
2019-05-15T21:54:12.410Z,90.70
2019-05-15T21:56:38.585Z,90.70
2019-05-15T21:59:04.420Z,90.50
2019-05-15T22:01:29.755Z,90.80
2019-05-15T22:03:55.205Z,90.60
2019-05-15T22:06:20.547Z,90.70
2019-05-15T22:08:45.986Z,90.50
2019-05-15T22:11:11.343Z,91.10
2019-05-15T22:13:39.047Z,90.10
2019-05-15T22:16:03.693Z,90.20
2019-05-15T22:18:29.051Z,90.40
2019-05-15T22:20:54.430Z,90.60
2019-05-15T22:23:19.986Z,90.50
2019-05-15T22:25:48.023Z,90.20
2019-05-15T22:28:12.318Z,90.30
2019-05-15T22:30:38.950Z,90.10
2019-05-15T22:33:04.536Z,90.30
2019-05-15T22:35:30.023Z,90.20
2019-05-15T22:37:55.374Z,90.40
2019-05-15T22:40:20.735Z,90.40
2019-05-15T22:42:48.346Z,90.40
2019-05-15T22:45:13.595Z,90.40
2019-05-15T22:47:39.274Z,90.50
2019-05-15T22:50:04.978Z,90.60
2019-05-15T22:52:30.344Z,90.70
2019-05-15T22:54:55.705Z,90.70
2019-05-15T22:57:21.098Z,90.70
2019-05-15T22:59:48.647Z,91.00
2019-05-15T23:02:13.431Z,90.70
2019-05-15T23:04:38.778Z,90.90
2019-05-15T23:07:04.125Z,91.00
2019-05-15T23:09:29.503Z,91.00
2019-05-15T23:11:54.844Z,91.70
2019-05-15T23:14:20.433Z,92.20
2019-05-15T23:16:48.147Z,92.20
2019-05-15T23:19:12.758Z,92.70
2019-05-15T23:21:40.276Z,93.20
2019-05-15T23:24:05.104Z,93.60
2019-05-15T23:26:30.462Z,93.30
2019-05-15T23:28:55.817Z,94.60
2019-05-15T23:31:21.184Z,94.60
2019-05-15T23:33:48.139Z,95.10
2019-05-15T23:36:13.690Z,95.40
2019-05-15T23:38:39.030Z,95.60
2019-05-15T23:41:04.422Z,95.90
2019-05-15T23:43:29.791Z,96.40
2019-05-15T23:45:55.230Z,96.70
2019-05-15T23:48:20.570Z,96.80
2019-05-15T23:50:48.483Z,96.90
2019-05-15T23:53:12.982Z,96.20
2019-05-15T23:55:38.354Z,96.50
2019-05-15T23:58:03.709Z,96.30
